sensor_id;sensor_type;location;lat;lon;timestamp;P1;durP1;ratioP1;P2;durP2;ratioP2
74335;SDS011;62755;-33.398;-70.572;2023-05-18T00:01:09;24.83;;;11.00;;
74335;SDS011;62755;-33.398;-70.572;2023-05-18T00:03:59;15.40;;;9.27;;
74335;SDS011;62755;-33.398;-70.572;2023-05-18T00:06:49;21.98;;;10.27;;
74335;SDS011;62755;-33.398;-70.572;2023-05-18T00:09:43;19.95;;;10.70;;
74335;SDS011;62755;-33.398;-70.572;2023-05-18T00:12:32;21.52;;;9.80;;
74335;SDS011;62755;-33.398;-70.572;2023-05-18T00:15:22;22.02;;;10.90;;
74335;SDS011;62755;-33.398;-70.572;2023-05-18T00:18:11;21.73;;;9.77;;
74335;SDS011;62755;-33.398;-70.572;2023-05-18T00:21:01;18.08;;;9.20;;
74335;SDS011;62755;-33.398;-70.572;2023-05-18T00:23:51;18.15;;;9.00;;
74335;SDS011;62755;-33.398;-70.572;2023-05-18T00:26:43;23.27;;;9.55;;
74335;SDS011;62755;-33.398;-70.572;2023-05-18T00:29:33;23.38;;;9.00;;
74335;SDS011;62755;-33.398;-70.572;2023-05-18T00:32:22;21.33;;;9.90;;
74335;SDS011;62755;-33.398;-70.572;2023-05-18T00:35:12;18.33;;;8.68;;
74335;SDS011;62755;-33.398;-70.572;2023-05-18T00:38:03;18.95;;;10.38;;
74335;SDS011;62755;-33.398;-70.572;2023-05-18T00:40:52;19.52;;;9.70;;
74335;SDS011;62755;-33.398;-70.572;2023-05-18T00:43:44;23.60;;;11.02;;
74335;SDS011;62755;-33.398;-70.572;2023-05-18T00:46:34;27.95;;;12.70;;
74335;SDS011;62755;-33.398;-70.572;2023-05-18T00:49:24;19.48;;;11.57;;
74335;SDS011;62755;-33.398;-70.572;2023-05-18T00:52:14;30.95;;;12.25;;
74335;SDS011;62755;-33.398;-70.572;2023-05-18T00:55:04;22.02;;;12.05;;
74335;SDS011;62755;-33.398;-70.572;2023-05-18T00:57:55;27.33;;;13.60;;
74335;SDS011;62755;-33.398;-70.572;2023-05-18T01:00:49;18.75;;;11.95;;
74335;SDS011;62755;-33.398;-70.572;2023-05-18T01:03:38;32.90;;;12.13;;
74335;SDS011;62755;-33.398;-70.572;2023-05-18T01:06:28;25.55;;;13.73;;
74335;SDS011;62755;-33.398;-70.572;2023-05-18T01:09:20;29.52;;;13.15;;
74335;SDS011;62755;-33.398;-70.572;2023-05-18T01:12:13;50.42;;;28.80;;
74335;SDS011;62755;-33.398;-70.572;2023-05-18T01:15:09;59.35;;;28.95;;
74335;SDS011;62755;-33.398;-70.572;2023-05-18T01:18:08;37.88;;;18.05;;
74335;SDS011;62755;-33.398;-70.572;2023-05-18T01:21:04;30.10;;;15.48;;
74335;SDS011;62755;-33.398;-70.572;2023-05-18T01:24:10;28.05;;;13.73;;
74335;SDS011;62755;-33.398;-70.572;2023-05-18T01:27:15;28.38;;;13.82;;
74335;SDS011;62755;-33.398;-70.572;2023-05-18T01:30:09;25.40;;;14.55;;
74335;SDS011;62755;-33.398;-70.572;2023-05-18T01:33:05;21.38;;;13.43;;
74335;SDS011;62755;-33.398;-70.572;2023-05-18T01:35:56;23.63;;;14.18;;
74335;SDS011;62755;-33.398;-70.572;2023-05-18T01:38:45;19.40;;;12.90;;
74335;SDS011;62755;-33.398;-70.572;2023-05-18T01:41:36;22.63;;;13.30;;
74335;SDS011;62755;-33.398;-70.572;2023-05-18T01:44:35;25.70;;;13.85;;
74335;SDS011;62755;-33.398;-70.572;2023-05-18T01:47:29;28.77;;;16.60;;
74335;SDS011;62755;-33.398;-70.572;2023-05-18T01:50:21;26.85;;;15.00;;
74335;SDS011;62755;-33.398;-70.572;2023-05-18T01:53:18;29.25;;;14.75;;
74335;SDS011;62755;-33.398;-70.572;2023-05-18T01:56:12;28.33;;;14.32;;
74335;SDS011;62755;-33.398;-70.572;2023-05-18T01:59:02;35.53;;;19.85;;
74335;SDS011;62755;-33.398;-70.572;2023-05-18T02:01:53;40.17;;;24.55;;
74335;SDS011;62755;-33.398;-70.572;2023-05-18T02:04:47;31.20;;;17.55;;
74335;SDS011;62755;-33.398;-70.572;2023-05-18T02:07:36;32.78;;;16.27;;
74335;SDS011;62755;-33.398;-70.572;2023-05-18T02:10:28;40.55;;;19.10;;
74335;SDS011;62755;-33.398;-70.572;2023-05-18T02:13:18;33.78;;;17.52;;
74335;SDS011;62755;-33.398;-70.572;2023-05-18T02:16:07;29.27;;;16.75;;
74335;SDS011;62755;-33.398;-70.572;2023-05-18T02:18:59;29.35;;;17.50;;
74335;SDS011;62755;-33.398;-70.572;2023-05-18T02:21:49;28.20;;;17.38;;
74335;SDS011;62755;-33.398;-70.572;2023-05-18T02:24:38;26.80;;;16.58;;
74335;SDS011;62755;-33.398;-70.572;2023-05-18T02:27:28;34.65;;;15.77;;
74335;SDS011;62755;-33.398;-70.572;2023-05-18T02:30:18;31.00;;;14.93;;
74335;SDS011;62755;-33.398;-70.572;2023-05-18T02:33:08;21.20;;;14.95;;
74335;SDS011;62755;-33.398;-70.572;2023-05-18T02:35:59;21.58;;;13.82;;
74335;SDS011;62755;-33.398;-70.572;2023-05-18T02:38:49;28.02;;;13.73;;
74335;SDS011;62755;-33.398;-70.572;2023-05-18T02:41:39;22.52;;;14.05;;
74335;SDS011;62755;-33.398;-70.572;2023-05-18T02:44:29;21.60;;;15.45;;
74335;SDS011;62755;-33.398;-70.572;2023-05-18T02:47:19;24.00;;;17.42;;
74335;SDS011;62755;-33.398;-70.572;2023-05-18T02:50:09;29.52;;;16.20;;
74335;SDS011;62755;-33.398;-70.572;2023-05-18T02:53:01;21.92;;;14.15;;
74335;SDS011;62755;-33.398;-70.572;2023-05-18T02:55:53;24.20;;;13.40;;
74335;SDS011;62755;-33.398;-70.572;2023-05-18T02:58:43;22.80;;;13.63;;
74335;SDS011;62755;-33.398;-70.572;2023-05-18T03:01:33;20.98;;;13.57;;
74335;SDS011;62755;-33.398;-70.572;2023-05-18T03:04:24;21.13;;;11.85;;
74335;SDS011;62755;-33.398;-70.572;2023-05-18T03:07:14;16.85;;;11.20;;
74335;SDS011;62755;-33.398;-70.572;2023-05-18T03:10:06;17.70;;;10.95;;
74335;SDS011;62755;-33.398;-70.572;2023-05-18T03:12:55;18.75;;;11.05;;
74335;SDS011;62755;-33.398;-70.572;2023-05-18T03:15:45;20.25;;;11.48;;
74335;SDS011;62755;-33.398;-70.572;2023-05-18T03:18:35;24.35;;;14.15;;
74335;SDS011;62755;-33.398;-70.572;2023-05-18T03:21:25;22.20;;;13.55;;
74335;SDS011;62755;-33.398;-70.572;2023-05-18T03:24:18;24.98;;;15.35;;
74335;SDS011;62755;-33.398;-70.572;2023-05-18T03:27:12;24.30;;;15.48;;
74335;SDS011;62755;-33.398;-70.572;2023-05-18T03:30:03;22.67;;;13.23;;
74335;SDS011;62755;-33.398;-70.572;2023-05-18T03:32:53;20.25;;;13.45;;
74335;SDS011;62755;-33.398;-70.572;2023-05-18T03:35:43;18.20;;;12.27;;
74335;SDS011;62755;-33.398;-70.572;2023-05-18T03:38:33;21.63;;;12.68;;
74335;SDS011;62755;-33.398;-70.572;2023-05-18T03:41:22;25.63;;;12.20;;
74335;SDS011;62755;-33.398;-70.572;2023-05-18T03:44:14;20.33;;;13.02;;
74335;SDS011;62755;-33.398;-70.572;2023-05-18T03:47:03;20.67;;;11.50;;
74335;SDS011;62755;-33.398;-70.572;2023-05-18T03:49:54;21.33;;;11.98;;
74335;SDS011;62755;-33.398;-70.572;2023-05-18T03:52:44;19.30;;;11.93;;
74335;SDS011;62755;-33.398;-70.572;2023-05-18T03:55:33;19.50;;;11.73;;
74335;SDS011;62755;-33.398;-70.572;2023-05-18T03:58:23;19.23;;;12.75;;
74335;SDS011;62755;-33.398;-70.572;2023-05-18T04:01:14;22.00;;;13.77;;
74335;SDS011;62755;-33.398;-70.572;2023-05-18T04:04:04;28.23;;;13.10;;
74335;SDS011;62755;-33.398;-70.572;2023-05-18T04:06:54;20.33;;;12.27;;
74335;SDS011;62755;-33.398;-70.572;2023-05-18T04:09:46;19.17;;;12.38;;
74335;SDS011;62755;-33.398;-70.572;2023-05-18T04:12:36;17.65;;;11.65;;
74335;SDS011;62755;-33.398;-70.572;2023-05-18T04:15:26;25.90;;;13.75;;
74335;SDS011;62755;-33.398;-70.572;2023-05-18T04:18:17;20.58;;;12.82;;
74335;SDS011;62755;-33.398;-70.572;2023-05-18T04:21:07;17.85;;;12.45;;
74335;SDS011;62755;-33.398;-70.572;2023-05-18T04:23:57;18.17;;;12.38;;
74335;SDS011;62755;-33.398;-70.572;2023-05-18T04:26:47;22.60;;;12.32;;
74335;SDS011;62755;-33.398;-70.572;2023-05-18T04:29:37;25.40;;;18.10;;
74335;SDS011;62755;-33.398;-70.572;2023-05-18T04:32:28;22.75;;;15.80;;
74335;SDS011;62755;-33.398;-70.572;2023-05-18T04:35:23;23.65;;;14.50;;
74335;SDS011;62755;-33.398;-70.572;2023-05-18T04:38:12;21.48;;;13.00;;
74335;SDS011;62755;-33.398;-70.572;2023-05-18T04:41:02;19.60;;;13.20;;
74335;SDS011;62755;-33.398;-70.572;2023-05-18T04:43:53;20.33;;;12.50;;
74335;SDS011;62755;-33.398;-70.572;2023-05-18T04:46:42;18.88;;;11.07;;
74335;SDS011;62755;-33.398;-70.572;2023-05-18T04:49:32;16.00;;;10.77;;
74335;SDS011;62755;-33.398;-70.572;2023-05-18T04:52:23;16.40;;;10.95;;
74335;SDS011;62755;-33.398;-70.572;2023-05-18T04:55:16;15.90;;;10.60;;
74335;SDS011;62755;-33.398;-70.572;2023-05-18T04:58:10;19.20;;;9.82;;
74335;SDS011;62755;-33.398;-70.572;2023-05-18T05:01:00;15.00;;;9.35;;
74335;SDS011;62755;-33.398;-70.572;2023-05-18T05:03:50;17.15;;;10.60;;
74335;SDS011;62755;-33.398;-70.572;2023-05-18T05:06:39;30.17;;;12.40;;
74335;SDS011;62755;-33.398;-70.572;2023-05-18T05:09:30;21.35;;;11.43;;
74335;SDS011;62755;-33.398;-70.572;2023-05-18T05:12:22;19.67;;;10.88;;
74335;SDS011;62755;-33.398;-70.572;2023-05-18T05:15:12;17.77;;;12.38;;
74335;SDS011;62755;-33.398;-70.572;2023-05-18T05:18:01;20.65;;;10.20;;
74335;SDS011;62755;-33.398;-70.572;2023-05-18T05:20:52;16.10;;;10.93;;
74335;SDS011;62755;-33.398;-70.572;2023-05-18T05:23:41;17.88;;;11.52;;
74335;SDS011;62755;-33.398;-70.572;2023-05-18T05:26:33;20.25;;;10.68;;
74335;SDS011;62755;-33.398;-70.572;2023-05-18T05:29:22;15.23;;;10.20;;
74335;SDS011;62755;-33.398;-70.572;2023-05-18T05:32:13;21.95;;;12.55;;
74335;SDS011;62755;-33.398;-70.572;2023-05-18T05:35:02;13.50;;;9.02;;
74335;SDS011;62755;-33.398;-70.572;2023-05-18T05:37:52;12.05;;;8.73;;
74335;SDS011;62755;-33.398;-70.572;2023-05-18T05:40:42;16.60;;;10.27;;
74335;SDS011;62755;-33.398;-70.572;2023-05-18T05:43:33;15.38;;;10.27;;
74335;SDS011;62755;-33.398;-70.572;2023-05-18T05:46:23;23.27;;;10.52;;
74335;SDS011;62755;-33.398;-70.572;2023-05-18T05:49:12;15.77;;;9.30;;
74335;SDS011;62755;-33.398;-70.572;2023-05-18T05:52:02;16.98;;;9.73;;
74335;SDS011;62755;-33.398;-70.572;2023-05-18T05:54:52;17.45;;;8.75;;
74335;SDS011;62755;-33.398;-70.572;2023-05-18T05:57:42;13.55;;;8.25;;
74335;SDS011;62755;-33.398;-70.572;2023-05-18T06:00:33;11.93;;;8.60;;
74335;SDS011;62755;-33.398;-70.572;2023-05-18T06:03:23;14.43;;;8.80;;
74335;SDS011;62755;-33.398;-70.572;2023-05-18T06:06:14;12.02;;;9.15;;
74335;SDS011;62755;-33.398;-70.572;2023-05-18T06:09:04;14.82;;;8.18;;
74335;SDS011;62755;-33.398;-70.572;2023-05-18T06:11:53;15.85;;;8.90;;
74335;SDS011;62755;-33.398;-70.572;2023-05-18T06:14:43;14.05;;;7.80;;
74335;SDS011;62755;-33.398;-70.572;2023-05-18T06:17:36;12.93;;;9.32;;
74335;SDS011;62755;-33.398;-70.572;2023-05-18T06:20:26;21.80;;;11.95;;
74335;SDS011;62755;-33.398;-70.572;2023-05-18T06:23:15;14.68;;;9.13;;
74335;SDS011;62755;-33.398;-70.572;2023-05-18T06:26:07;13.38;;;8.35;;
74335;SDS011;62755;-33.398;-70.572;2023-05-18T06:28:57;10.73;;;7.97;;
74335;SDS011;62755;-33.398;-70.572;2023-05-18T06:31:46;13.95;;;9.65;;
74335;SDS011;62755;-33.398;-70.572;2023-05-18T06:34:39;19.10;;;9.18;;
74335;SDS011;62755;-33.398;-70.572;2023-05-18T06:37:30;16.83;;;9.02;;
74335;SDS011;62755;-33.398;-70.572;2023-05-18T06:40:20;15.15;;;9.60;;
74335;SDS011;62755;-33.398;-70.572;2023-05-18T06:43:09;17.67;;;9.85;;
74335;SDS011;62755;-33.398;-70.572;2023-05-18T06:46:00;12.65;;;8.75;;
74335;SDS011;62755;-33.398;-70.572;2023-05-18T06:48:50;13.85;;;8.30;;
74335;SDS011;62755;-33.398;-70.572;2023-05-18T06:51:41;12.20;;;9.32;;
74335;SDS011;62755;-33.398;-70.572;2023-05-18T06:54:31;16.00;;;8.60;;
74335;SDS011;62755;-33.398;-70.572;2023-05-18T06:57:20;14.05;;;8.52;;
74335;SDS011;62755;-33.398;-70.572;2023-05-18T07:00:10;15.50;;;8.68;;
74335;SDS011;62755;-33.398;-70.572;2023-05-18T07:03:00;15.63;;;9.30;;
74335;SDS011;62755;-33.398;-70.572;2023-05-18T07:05:50;15.48;;;9.35;;
74335;SDS011;62755;-33.398;-70.572;2023-05-18T07:08:42;13.38;;;8.88;;
74335;SDS011;62755;-33.398;-70.572;2023-05-18T07:11:32;13.27;;;8.35;;
74335;SDS011;62755;-33.398;-70.572;2023-05-18T07:14:22;12.73;;;8.48;;
74335;SDS011;62755;-33.398;-70.572;2023-05-18T07:17:11;13.93;;;9.07;;
74335;SDS011;62755;-33.398;-70.572;2023-05-18T07:20:00;15.10;;;8.82;;
74335;SDS011;62755;-33.398;-70.572;2023-05-18T07:22:50;12.43;;;9.10;;
74335;SDS011;62755;-33.398;-70.572;2023-05-18T07:25:42;15.30;;;10.15;;
74335;SDS011;62755;-33.398;-70.572;2023-05-18T07:28:32;17.00;;;10.57;;
74335;SDS011;62755;-33.398;-70.572;2023-05-18T07:31:21;13.50;;;7.88;;
74335;SDS011;62755;-33.398;-70.572;2023-05-18T07:34:11;13.18;;;8.70;;
74335;SDS011;62755;-33.398;-70.572;2023-05-18T07:37:00;15.73;;;8.18;;
74335;SDS011;62755;-33.398;-70.572;2023-05-18T07:39:50;14.93;;;8.98;;
74335;SDS011;62755;-33.398;-70.572;2023-05-18T07:42:41;10.35;;;7.38;;
74335;SDS011;62755;-33.398;-70.572;2023-05-18T07:45:31;13.65;;;9.10;;
74335;SDS011;62755;-33.398;-70.572;2023-05-18T07:48:20;13.40;;;8.30;;
74335;SDS011;62755;-33.398;-70.572;2023-05-18T07:51:10;12.80;;;7.80;;
74335;SDS011;62755;-33.398;-70.572;2023-05-18T07:54:00;10.73;;;7.60;;
74335;SDS011;62755;-33.398;-70.572;2023-05-18T07:56:50;18.50;;;7.50;;
74335;SDS011;62755;-33.398;-70.572;2023-05-18T07:59:41;12.65;;;8.82;;
74335;SDS011;62755;-33.398;-70.572;2023-05-18T08:02:31;15.30;;;8.68;;
74335;SDS011;62755;-33.398;-70.572;2023-05-18T08:05:20;13.60;;;8.00;;
74335;SDS011;62755;-33.398;-70.572;2023-05-18T08:08:10;17.27;;;8.50;;
74335;SDS011;62755;-33.398;-70.572;2023-05-18T08:11:00;13.23;;;8.95;;
74335;SDS011;62755;-33.398;-70.572;2023-05-18T08:13:49;10.15;;;6.82;;
74335;SDS011;62755;-33.398;-70.572;2023-05-18T08:16:41;11.95;;;8.07;;
74335;SDS011;62755;-33.398;-70.572;2023-05-18T08:19:30;13.50;;;7.70;;
74335;SDS011;62755;-33.398;-70.572;2023-05-18T08:22:20;16.30;;;7.47;;
74335;SDS011;62755;-33.398;-70.572;2023-05-18T08:25:10;11.65;;;7.55;;
74335;SDS011;62755;-33.398;-70.572;2023-05-18T08:27:59;12.40;;;8.18;;
74335;SDS011;62755;-33.398;-70.572;2023-05-18T08:30:49;10.20;;;7.00;;
74335;SDS011;62755;-33.398;-70.572;2023-05-18T08:33:40;14.35;;;7.85;;
74335;SDS011;62755;-33.398;-70.572;2023-05-18T08:36:30;14.52;;;7.53;;
74335;SDS011;62755;-33.398;-70.572;2023-05-18T08:39:20;19.05;;;8.63;;
74335;SDS011;62755;-33.398;-70.572;2023-05-18T08:42:10;13.70;;;7.50;;
74335;SDS011;62755;-33.398;-70.572;2023-05-18T08:47:59;13.65;;;7.40;;
74335;SDS011;62755;-33.398;-70.572;2023-05-18T08:50:51;12.27;;;6.90;;
74335;SDS011;62755;-33.398;-70.572;2023-05-18T08:53:45;9.90;;;7.05;;
74335;SDS011;62755;-33.398;-70.572;2023-05-18T08:56:38;11.20;;;6.93;;
74335;SDS011;62755;-33.398;-70.572;2023-05-18T08:59:29;13.02;;;6.80;;
74335;SDS011;62755;-33.398;-70.572;2023-05-18T09:02:20;9.63;;;6.50;;
74335;SDS011;62755;-33.398;-70.572;2023-05-18T09:05:11;10.68;;;7.05;;
74335;SDS011;62755;-33.398;-70.572;2023-05-18T09:08:04;12.27;;;6.43;;
74335;SDS011;62755;-33.398;-70.572;2023-05-18T09:10:55;10.52;;;7.15;;
74335;SDS011;62755;-33.398;-70.572;2023-05-18T09:13:45;10.68;;;6.63;;
74335;SDS011;62755;-33.398;-70.572;2023-05-18T09:16:36;9.90;;;6.72;;
74335;SDS011;62755;-33.398;-70.572;2023-05-18T09:19:26;13.93;;;8.65;;
74335;SDS011;62755;-33.398;-70.572;2023-05-18T09:22:15;15.30;;;8.65;;
74335;SDS011;62755;-33.398;-70.572;2023-05-18T09:25:07;13.73;;;8.30;;
74335;SDS011;62755;-33.398;-70.572;2023-05-18T09:27:57;14.70;;;8.02;;
74335;SDS011;62755;-33.398;-70.572;2023-05-18T09:30:46;13.25;;;7.72;;
74335;SDS011;62755;-33.398;-70.572;2023-05-18T09:33:38;12.60;;;8.20;;
74335;SDS011;62755;-33.398;-70.572;2023-05-18T09:36:30;15.32;;;8.20;;
74335;SDS011;62755;-33.398;-70.572;2023-05-18T09:39:19;18.33;;;9.27;;
74335;SDS011;62755;-33.398;-70.572;2023-05-18T09:42:11;16.67;;;9.07;;
74335;SDS011;62755;-33.398;-70.572;2023-05-18T09:45:00;13.25;;;8.55;;
74335;SDS011;62755;-33.398;-70.572;2023-05-18T09:47:50;16.80;;;7.65;;
74335;SDS011;62755;-33.398;-70.572;2023-05-18T09:50:41;14.52;;;9.20;;
74335;SDS011;62755;-33.398;-70.572;2023-05-18T09:53:31;12.55;;;8.45;;
74335;SDS011;62755;-33.398;-70.572;2023-05-18T09:56:24;14.13;;;9.27;;
74335;SDS011;62755;-33.398;-70.572;2023-05-18T09:59:15;12.95;;;8.55;;
74335;SDS011;62755;-33.398;-70.572;2023-05-18T10:02:05;20.85;;;8.80;;
74335;SDS011;62755;-33.398;-70.572;2023-05-18T10:04:57;17.52;;;9.88;;
74335;SDS011;62755;-33.398;-70.572;2023-05-18T10:07:47;16.08;;;9.10;;
74335;SDS011;62755;-33.398;-70.572;2023-05-18T10:10:38;16.95;;;8.60;;
74335;SDS011;62755;-33.398;-70.572;2023-05-18T10:13:29;15.55;;;9.63;;
74335;SDS011;62755;-33.398;-70.572;2023-05-18T10:16:21;16.63;;;9.90;;
74335;SDS011;62755;-33.398;-70.572;2023-05-18T10:19:12;16.55;;;8.77;;
74335;SDS011;62755;-33.398;-70.572;2023-05-18T10:22:02;14.73;;;8.93;;
74335;SDS011;62755;-33.398;-70.572;2023-05-18T10:24:53;14.35;;;9.02;;
74335;SDS011;62755;-33.398;-70.572;2023-05-18T10:27:45;18.73;;;9.77;;
74335;SDS011;62755;-33.398;-70.572;2023-05-18T10:30:37;15.57;;;10.50;;
74335;SDS011;62755;-33.398;-70.572;2023-05-18T10:33:31;16.25;;;10.00;;
74335;SDS011;62755;-33.398;-70.572;2023-05-18T10:36:23;14.40;;;9.20;;
74335;SDS011;62755;-33.398;-70.572;2023-05-18T10:39:15;19.95;;;10.55;;
74335;SDS011;62755;-33.398;-70.572;2023-05-18T10:42:05;18.73;;;10.73;;
74335;SDS011;62755;-33.398;-70.572;2023-05-18T10:44:56;15.07;;;9.88;;
74335;SDS011;62755;-33.398;-70.572;2023-05-18T10:47:47;16.33;;;9.82;;
74335;SDS011;62755;-33.398;-70.572;2023-05-18T10:50:41;14.48;;;8.73;;
74335;SDS011;62755;-33.398;-70.572;2023-05-18T10:53:31;18.27;;;9.80;;
74335;SDS011;62755;-33.398;-70.572;2023-05-18T10:56:21;19.35;;;9.95;;
74335;SDS011;62755;-33.398;-70.572;2023-05-18T10:59:11;18.63;;;8.63;;
74335;SDS011;62755;-33.398;-70.572;2023-05-18T11:02:03;17.85;;;8.38;;
74335;SDS011;62755;-33.398;-70.572;2023-05-18T11:04:54;20.77;;;8.93;;
74335;SDS011;62755;-33.398;-70.572;2023-05-18T11:07:45;15.27;;;9.65;;
74335;SDS011;62755;-33.398;-70.572;2023-05-18T11:10:37;16.60;;;10.25;;
74335;SDS011;62755;-33.398;-70.572;2023-05-18T11:13:29;14.73;;;9.02;;
74335;SDS011;62755;-33.398;-70.572;2023-05-18T11:16:19;17.05;;;10.38;;
74335;SDS011;62755;-33.398;-70.572;2023-05-18T11:19:19;20.40;;;11.43;;
74335;SDS011;62755;-33.398;-70.572;2023-05-18T11:22:13;19.80;;;10.98;;
74335;SDS011;62755;-33.398;-70.572;2023-05-18T11:25:09;14.73;;;9.10;;
74335;SDS011;62755;-33.398;-70.572;2023-05-18T11:28:29;19.77;;;9.02;;
74335;SDS011;62755;-33.398;-70.572;2023-05-18T11:31:19;18.52;;;10.30;;
74335;SDS011;62755;-33.398;-70.572;2023-05-18T11:40:45;18.13;;;10.10;;
74335;SDS011;62755;-33.398;-70.572;2023-05-18T11:43:36;20.60;;;10.32;;
74335;SDS011;62755;-33.398;-70.572;2023-05-18T11:46:25;19.20;;;10.30;;
74335;SDS011;62755;-33.398;-70.572;2023-05-18T11:49:15;14.35;;;9.48;;
74335;SDS011;62755;-33.398;-70.572;2023-05-18T11:52:08;19.48;;;9.90;;
74335;SDS011;62755;-33.398;-70.572;2023-05-18T11:55:03;19.77;;;8.70;;
74335;SDS011;62755;-33.398;-70.572;2023-05-18T11:57:55;17.05;;;10.63;;
74335;SDS011;62755;-33.398;-70.572;2023-05-18T12:00:44;17.95;;;10.18;;
74335;SDS011;62755;-33.398;-70.572;2023-05-18T12:03:35;19.50;;;11.20;;
74335;SDS011;62755;-33.398;-70.572;2023-05-18T12:06:26;16.17;;;10.45;;
74335;SDS011;62755;-33.398;-70.572;2023-05-18T12:09:16;23.30;;;12.75;;
74335;SDS011;62755;-33.398;-70.572;2023-05-18T12:12:07;23.95;;;13.02;;
74335;SDS011;62755;-33.398;-70.572;2023-05-18T12:14:59;23.88;;;13.63;;
74335;SDS011;62755;-33.398;-70.572;2023-05-18T12:17:50;44.85;;;17.35;;
74335;SDS011;62755;-33.398;-70.572;2023-05-18T12:20:39;26.13;;;13.00;;
74335;SDS011;62755;-33.398;-70.572;2023-05-18T12:23:36;25.75;;;14.27;;
74335;SDS011;62755;-33.398;-70.572;2023-05-18T12:26:26;28.58;;;15.98;;
74335;SDS011;62755;-33.398;-70.572;2023-05-18T12:29:16;31.58;;;17.33;;
74335;SDS011;62755;-33.398;-70.572;2023-05-18T12:32:11;27.10;;;16.13;;
74335;SDS011;62755;-33.398;-70.572;2023-05-18T12:35:00;20.85;;;13.65;;
74335;SDS011;62755;-33.398;-70.572;2023-05-18T12:37:51;19.27;;;11.77;;
74335;SDS011;62755;-33.398;-70.572;2023-05-18T12:40:41;24.55;;;13.75;;
74335;SDS011;62755;-33.398;-70.572;2023-05-18T12:43:33;27.10;;;13.90;;
74335;SDS011;62755;-33.398;-70.572;2023-05-18T12:46:23;28.58;;;15.00;;
74335;SDS011;62755;-33.398;-70.572;2023-05-18T12:49:16;27.67;;;15.68;;
74335;SDS011;62755;-33.398;-70.572;2023-05-18T12:52:10;26.80;;;15.82;;
74335;SDS011;62755;-33.398;-70.572;2023-05-18T12:55:01;23.70;;;13.13;;
74335;SDS011;62755;-33.398;-70.572;2023-05-18T12:58:00;28.60;;;13.23;;
74335;SDS011;62755;-33.398;-70.572;2023-05-18T13:00:51;30.42;;;13.88;;
74335;SDS011;62755;-33.398;-70.572;2023-05-18T13:03:40;24.88;;;12.18;;
74335;SDS011;62755;-33.398;-70.572;2023-05-18T13:06:36;26.33;;;14.43;;
74335;SDS011;62755;-33.398;-70.572;2023-05-18T13:09:25;28.67;;;14.15;;
74335;SDS011;62755;-33.398;-70.572;2023-05-18T13:12:15;24.83;;;14.07;;
74335;SDS011;62755;-33.398;-70.572;2023-05-18T13:15:12;28.35;;;16.13;;
74335;SDS011;62755;-33.398;-70.572;2023-05-18T13:18:03;25.75;;;14.68;;
74335;SDS011;62755;-33.398;-70.572;2023-05-18T13:20:54;28.50;;;14.80;;
74335;SDS011;62755;-33.398;-70.572;2023-05-18T13:23:46;50.67;;;16.73;;
74335;SDS011;62755;-33.398;-70.572;2023-05-18T13:26:36;27.23;;;15.02;;
74335;SDS011;62755;-33.398;-70.572;2023-05-18T13:29:25;25.50;;;14.98;;
74335;SDS011;62755;-33.398;-70.572;2023-05-18T13:32:15;33.08;;;18.90;;
74335;SDS011;62755;-33.398;-70.572;2023-05-18T13:35:04;42.60;;;19.60;;
74335;SDS011;62755;-33.398;-70.572;2023-05-18T13:37:54;40.78;;;18.23;;
74335;SDS011;62755;-33.398;-70.572;2023-05-18T13:40:46;36.45;;;18.05;;
74335;SDS011;62755;-33.398;-70.572;2023-05-18T13:43:35;37.67;;;17.65;;
74335;SDS011;62755;-33.398;-70.572;2023-05-18T13:46:25;34.72;;;17.27;;
74335;SDS011;62755;-33.398;-70.572;2023-05-18T13:49:14;27.27;;;16.77;;
74335;SDS011;62755;-33.398;-70.572;2023-05-18T13:52:04;29.40;;;17.10;;
74335;SDS011;62755;-33.398;-70.572;2023-05-18T13:54:53;26.02;;;15.65;;
74335;SDS011;62755;-33.398;-70.572;2023-05-18T13:57:45;34.83;;;15.90;;
74335;SDS011;62755;-33.398;-70.572;2023-05-18T14:00:34;32.20;;;16.88;;
74335;SDS011;62755;-33.398;-70.572;2023-05-18T14:03:25;33.90;;;17.23;;
74335;SDS011;62755;-33.398;-70.572;2023-05-18T14:06:14;32.30;;;17.13;;
74335;SDS011;62755;-33.398;-70.572;2023-05-18T14:09:05;29.02;;;17.92;;
74335;SDS011;62755;-33.398;-70.572;2023-05-18T14:11:55;29.90;;;17.17;;
74335;SDS011;62755;-33.398;-70.572;2023-05-18T14:14:46;31.38;;;17.95;;
74335;SDS011;62755;-33.398;-70.572;2023-05-18T14:17:36;32.75;;;17.52;;
74335;SDS011;62755;-33.398;-70.572;2023-05-18T14:20:25;34.90;;;18.13;;
74335;SDS011;62755;-33.398;-70.572;2023-05-18T14:23:15;27.50;;;17.55;;
74335;SDS011;62755;-33.398;-70.572;2023-05-18T14:26:05;31.83;;;18.92;;
74335;SDS011;62755;-33.398;-70.572;2023-05-18T14:28:55;33.30;;;20.00;;
74335;SDS011;62755;-33.398;-70.572;2023-05-18T14:31:46;39.30;;;20.45;;
74335;SDS011;62755;-33.398;-70.572;2023-05-18T14:34:36;32.40;;;19.98;;
74335;SDS011;62755;-33.398;-70.572;2023-05-18T14:37:25;45.20;;;22.20;;
74335;SDS011;62755;-33.398;-70.572;2023-05-18T14:40:15;32.10;;;22.05;;
74335;SDS011;62755;-33.398;-70.572;2023-05-18T14:43:04;39.45;;;21.20;;
74335;SDS011;62755;-33.398;-70.572;2023-05-18T14:45:54;36.38;;;21.48;;
74335;SDS011;62755;-33.398;-70.572;2023-05-18T14:48:45;33.72;;;20.50;;
74335;SDS011;62755;-33.398;-70.572;2023-05-18T14:51:34;31.60;;;21.33;;
74335;SDS011;62755;-33.398;-70.572;2023-05-18T14:54:24;40.17;;;22.77;;
74335;SDS011;62755;-33.398;-70.572;2023-05-18T14:57:13;38.67;;;24.27;;
74335;SDS011;62755;-33.398;-70.572;2023-05-18T15:00:03;42.55;;;24.67;;
74335;SDS011;62755;-33.398;-70.572;2023-05-18T15:02:53;32.55;;;23.13;;
74335;SDS011;62755;-33.398;-70.572;2023-05-18T15:05:47;40.17;;;25.02;;
74335;SDS011;62755;-33.398;-70.572;2023-05-18T15:08:36;38.25;;;25.13;;
74335;SDS011;62755;-33.398;-70.572;2023-05-18T15:11:26;38.63;;;25.75;;
74335;SDS011;62755;-33.398;-70.572;2023-05-18T15:14:15;43.67;;;25.90;;
74335;SDS011;62755;-33.398;-70.572;2023-05-18T15:17:04;50.05;;;26.63;;
74335;SDS011;62755;-33.398;-70.572;2023-05-18T15:19:54;41.95;;;27.88;;
74335;SDS011;62755;-33.398;-70.572;2023-05-18T15:22:46;50.80;;;28.85;;
74335;SDS011;62755;-33.398;-70.572;2023-05-18T15:25:35;44.45;;;26.92;;
74335;SDS011;62755;-33.398;-70.572;2023-05-18T15:28:25;41.15;;;28.45;;
74335;SDS011;62755;-33.398;-70.572;2023-05-18T15:31:14;45.78;;;30.90;;
74335;SDS011;62755;-33.398;-70.572;2023-05-18T15:34:04;42.05;;;29.45;;
74335;SDS011;62755;-33.398;-70.572;2023-05-18T15:36:54;35.63;;;27.88;;
74335;SDS011;62755;-33.398;-70.572;2023-05-18T15:39:45;41.38;;;29.42;;
74335;SDS011;62755;-33.398;-70.572;2023-05-18T15:42:35;52.83;;;28.98;;
74335;SDS011;62755;-33.398;-70.572;2023-05-18T15:45:25;45.10;;;27.33;;
74335;SDS011;62755;-33.398;-70.572;2023-05-18T15:48:15;37.33;;;27.17;;
74335;SDS011;62755;-33.398;-70.572;2023-05-18T15:51:04;43.05;;;29.30;;
74335;SDS011;62755;-33.398;-70.572;2023-05-18T15:53:54;38.65;;;28.05;;
74335;SDS011;62755;-33.398;-70.572;2023-05-18T15:56:45;44.40;;;28.27;;
74335;SDS011;62755;-33.398;-70.572;2023-05-18T15:59:35;37.90;;;29.27;;
74335;SDS011;62755;-33.398;-70.572;2023-05-18T16:02:25;46.28;;;30.80;;
74335;SDS011;62755;-33.398;-70.572;2023-05-18T16:05:14;38.67;;;28.33;;
74335;SDS011;62755;-33.398;-70.572;2023-05-18T16:08:04;41.83;;;27.88;;
74335;SDS011;62755;-33.398;-70.572;2023-05-18T16:10:54;41.20;;;28.13;;